Flight Track Log - Related Links

Times and Time Zones

All times are in EDT time to prevent confusion due to time zone crossing. See the UAL4596 flight status page for this flight to view local times or setup timezone preferences in your user account.

Time Position Orientation Groundspeed Altitude Reporting Facility
EDT Latitude Longitude Course Direction KTS MPH feet Rate Location/Type
Tue 03:05:38 PM 40.6500 -74.2167 285° West 200 230 2,400  Level New York TRACON
Tue 03:06:43 PM 40.6667 -74.3000 285° West 250 288 5,000 2,476 Climbing New York TRACON
Tue 03:07:44 PM 40.7000 -74.3833 298° West 245 282 7,600 2,381 Climbing New York TRACON
Tue 03:08:49 PM 40.7167 -74.4833 282° West 244 281 10,000 1,824 Climbing New York TRACON
Tue 03:09:49 PM 40.7167 -74.5667 270° West 268 308 11,400 1,263 Climbing New York TRACON
Tue 03:10:24 PM 40.7342 -74.6269 291° West 286 329 12,000 1,761 Climbing New York Center
Tue 03:11:21 PM 40.7469 -74.7372 279° West 293 337 14,100 1,678 Climbing New York Center
Tue 03:12:22 PM 40.7647 -74.8314 284° West 303 349 15,300 1,230 Climbing New York Center
Tue 03:13:23 PM 40.7794 -74.9503 279° West 324 373 16,600 1,190 Climbing New York Center
Tue 03:14:23 PM 40.7942 -75.0553 281° West 319 367 17,700 1,000 Climbing New York Center
Tue 03:15:23 PM 40.7964 -75.1678 272° West 314 361 18,600 1,041 Climbing New York Center
Tue 03:16:24 PM 40.7794 -75.2872 259° West 320 368 19,800 1,190 Climbing New York Center
Tue 03:17:24 PM 40.7561 -75.4036 255° West 327 376 21,000 1,220 Climbing New York Center
Tue 03:18:22 PM 40.7114 -75.5319 245° Southwest 338 389 22,200 1,210 Climbing New York Center
Tue 03:19:23 PM 40.6714 -75.6442 245° Southwest 344 396 23,400 1,190 Climbing New York Center
Tue 03:20:23 PM 40.6269 -75.7614 243° Southwest 357 411 24,600 1,200 Climbing New York Center
Tue 03:21:23 PM 40.5825 -75.8756 243° Southwest 357 411 25,800 1,190 Climbing New York Center
Tue 03:22:24 PM 40.5383 -75.9817 241° Southwest 357 411 27,000 1,091 Climbing New York Center
Tue 03:23:24 PM 40.4956 -76.0983 244° Southwest 357 411 28,000 508 Climbing New York Center
Tue 03:24:22 PM 40.4483 -76.2203 243° Southwest 357 411 28,000 101 Level New York Center
Tue 03:25:23 PM 40.4006 -76.3472 244° Southwest 374 430 28,200 541 Climbing New York Center
Tue 03:26:24 PM 40.3508 -76.4739 243° Southwest 381 438 29,100 934 Climbing New York Center
Tue 03:27:25 PM 40.2983 -76.6086 243° Southwest 386 444 30,100 1,017 Climbing New York Center
Tue 03:28:22 PM 40.2464 -76.7319 241° Southwest 386 444 31,100 966 Climbing New York Center
Tue 03:29:23 PM 40.1964 -76.8556 242° Southwest 386 444 32,000 934 Climbing New York Center
Tue 03:30:24 PM 40.1461 -76.9786 242° Southwest 386 444 33,000 966 Climbing New York Center
Tue 03:31:21 PM 40.0978 -77.1019 243° Southwest 386 444 33,900 915 Climbing New York Center
Tue 03:32:22 PM 40.0475 -77.2222 241° Southwest 386 444 34,800 878 Climbing New York Center
Tue 03:33:24 PM 40.0039 -77.3322 243° Southwest 374 430 35,700 447 Climbing New York Center
Tue 03:35:03 PM 39.9583 -77.5603 255° West 363 418 36,000 113 Climbing Cleveland Center
Tue 03:36:03 PM 39.9619 -77.7011 272° West 370 426 36,000  Level Cleveland Center
Tue 03:37:03 PM 39.9675 -77.8389 273° West 386 444 36,000  Level Cleveland Center
Tue 03:38:03 PM 39.9706 -77.9769 272° West 381 438 36,000  Level Cleveland Center
Tue 03:40:03 PM 39.9786 -78.2503 272° West 381 438 36,000  Level Cleveland Center
Tue 03:41:03 PM 39.9814 -78.3883 272° West 381 438 36,000  Level Cleveland Center
Tue 03:42:03 PM 39.9861 -78.5292 273° West 381 438 36,000  Level Cleveland Center
Tue 03:43:03 PM 39.9886 -78.6647 271° West 381 438 36,000  Level Cleveland Center
Tue 03:44:03 PM 39.9908 -78.8056 271° West 381 438 36,000  Level Cleveland Center
Tue 03:45:03 PM 39.9928 -78.9408 271° West 381 438 36,000  Level Cleveland Center
Tue 03:46:03 PM 40.0008 -79.0789 274° West 381 438 36,000  Level Cleveland Center
Tue 03:47:03 PM 40.0028 -79.2144 271° West 381 438 36,000  Level Cleveland Center
Tue 03:48:03 PM 40.0064 -79.3525 272° West 381 438 36,000  Level Cleveland Center
Tue 03:49:03 PM 40.0056 -79.4908 270° West 381 438 36,000  Level Cleveland Center
Tue 03:50:03 PM 40.0089 -79.6289 272° West 381 438 36,000  Level Cleveland Center
Tue 03:51:03 PM 40.0100 -79.7644 271° West 381 438 36,000  Level Cleveland Center
Tue 03:52:03 PM 40.0131 -79.9000 272° West 381 438 36,000  Level Cleveland Center
Tue 03:53:03 PM 40.0117 -80.0383 269° West 381 438 36,000  Level Cleveland Center
Tue 03:54:03 PM 40.0164 -80.1603 273° West 381 438 36,000  Level Cleveland Center
Tue 03:55:03 PM 40.0147 -80.2983 269° West 381 438 36,000  Level Cleveland Center
Tue 03:56:03 PM 40.0169 -80.4339 271° West 381 438 36,000  Level Cleveland Center
Tue 03:57:03 PM 40.0192 -80.5750 271° West 381 438 36,000  Level Cleveland Center
Tue 03:58:03 PM 40.0192 -80.7158 270° West 381 438 36,000  Level Cleveland Center
Tue 03:59:41 PM 40.0142 -80.9503 268° West 387 445 36,000  Level Indianapolis Center
Tue 04:00:42 PM 40.0128 -81.0922 269° West 387 445 36,000  Level Indianapolis Center
Tue 04:01:44 PM 40.0108 -81.2339 269° West 387 445 36,000  Level Indianapolis Center
Tue 04:02:46 PM 40.0075 -81.3753 268° West 387 445 36,000  Level Indianapolis Center
Tue 04:03:47 PM 40.0053 -81.5167 269° West 386 444 36,000  Level Indianapolis Center
Tue 04:04:49 PM 40.0028 -81.6606 269° West 391 450 36,000  Level Indianapolis Center
Tue 04:05:51 PM 39.9994 -81.8203 268° West 391 450 36,000  Level Indianapolis Center
Tue 04:06:52 PM 39.9950 -81.9628 268° West 392 451 36,000  Level Indianapolis Center
Tue 04:07:54 PM 39.9925 -82.1067 269° West 393 452 36,000  Level Indianapolis Center
Tue 04:08:56 PM 39.9892 -82.2500 268° West 393 452 36,000  Level Indianapolis Center
Tue 04:09:58 PM 39.9856 -82.3928 268° West 393 452 36,000  Level Indianapolis Center
Tue 04:10:59 PM 39.9819 -82.5372 268° West 394 453 36,000  Level Indianapolis Center
Tue 04:12:01 PM 39.9769 -82.6806 267° West 393 452 36,000  Level Indianapolis Center
Tue 04:13:03 PM 39.9733 -82.8242 268° West 394 453 36,000 -48 Level Indianapolis Center
Tue 04:14:05 PM 39.9675 -82.9897 267° West 389 448 35,900  Descending Indianapolis Center
Tue 04:15:06 PM 39.9644 -83.1286 268° West 383 441 36,000 49 Climbing Indianapolis Center
Tue 04:16:08 PM 39.9614 -83.2633 268° West 373 429 36,000  Level Indianapolis Center
Tue 04:17:10 PM 39.9578 -83.3969 268° West 370 426 36,000  Level Indianapolis Center
Tue 04:18:12 PM 39.9528 -83.5283 267° West 368 423 36,000  Level Indianapolis Center
Tue 04:19:13 PM 39.9469 -83.6586 267° West 361 415 36,000  Level Indianapolis Center
Tue 04:20:15 PM 39.9414 -83.8100 267° West 359 413 36,000  Level Indianapolis Center
Tue 04:21:17 PM 39.9719 -83.9350 288° West 364 419 36,000  Level Indianapolis Center
Tue 04:22:18 PM 40.0117 -84.0569 293° West 361 415 36,000  Level Indianapolis Center
Tue 04:23:20 PM 40.0503 -84.1769 293° West 357 411 36,000  Level Indianapolis Center
Tue 04:24:22 PM 40.0903 -84.2994 293° West 362 417 36,000  Level Indianapolis Center
Tue 04:25:23 PM 40.1300 -84.4225 293° West 364 419 36,000  Level Indianapolis Center
Tue 04:26:25 PM 40.1717 -84.5469 294° West 370 426 36,000  Level Indianapolis Center
Tue 04:27:27 PM 40.2089 -84.6725 291° West 369 425 36,000  Level Indianapolis Center
Tue 04:28:28 PM 40.2497 -84.7981 293° West 371 427 36,000  Level Indianapolis Center
Tue 04:29:30 PM 40.2978 -84.9458 293° West 375 432 36,000 -48 Level Indianapolis Center
Tue 04:30:32 PM 40.3183 -85.0783 282° West 367 422 35,900  Descending Indianapolis Center
Tue 04:31:33 PM 40.2808 -85.2056 249° West 366 421 36,000 49 Climbing Indianapolis Center
Tue 04:32:35 PM 40.2433 -85.3328 249° West 370 426 36,000 -69 Level Indianapolis Center
Tue 04:33:00 PM 40.2300 -85.3767 248° West 373 429 35,900  Descending Indianapolis Center
Tue 04:33:24 PM 40.2144 -85.4272 248° West 376 433 36,000 70 Climbing Chicago Center
Tue 04:34:26 PM 40.1747 -85.5578 248° West 382 440 36,000  Level Chicago Center
Tue 04:35:28 PM 40.1347 -85.6906 249° West 389 448 36,000  Level Chicago Center
Tue 04:36:04 PM 40.1025 -85.7942 248° West 388 447 36,000 -61 Level Indianapolis Center
Tue 04:37:06 PM 40.0653 -85.9197 249° West 375 432 35,900  Descending Indianapolis Center
Tue 04:38:08 PM 40.0311 -86.0272 247° West 372 428 36,000 53 Climbing Indianapolis Center
Tue 04:38:59 PM 39.9956 -86.1475 249° West 377 434 36,000  Level Chicago Center
Tue 04:40:01 PM 39.9567 -86.2742 248° West 378 435 36,000  Level Chicago Center
Tue 04:41:12 PM 39.9050 -86.4369 248° West 381 438 36,000  Level Indianapolis Center
Tue 04:42:14 PM 39.8656 -86.5664 248° West 383 441 36,000  Level Indianapolis Center
Tue 04:43:15 PM 39.8258 -86.6922 248° West 378 435 36,000 -146 Level Indianapolis Center
Tue 04:44:17 PM 39.7867 -86.8189 248° West 377 434 35,700 -484 Descending Indianapolis Center
Tue 04:45:19 PM 39.7481 -86.9431 248° West 373 429 35,000 -341 Descending Indianapolis Center
Tue 04:46:20 PM 39.7156 -87.0583 250° West 352 405 35,000  Level Indianapolis Center
Tue 04:47:22 PM 39.6911 -87.2050 258° West 346 398 35,000  Level Indianapolis Center
Tue 04:48:23 PM 39.6689 -87.3364 258° West 366 421 35,000  Level Indianapolis Center
Tue 04:49:25 PM 39.6542 -87.4725 262° West 378 435 35,000 -293 Level Indianapolis Center
Tue 04:50:26 PM 39.6269 -87.5953 254° West 368 423 34,400 -1,317 Descending Indianapolis Center
Tue 04:51:28 PM 39.5883 -87.7131 247° West 357 411 32,300 -2,226 Descending Indianapolis Center
Tue 04:52:30 PM 39.5494 -87.8297 247° West 354 407 29,800 -2,098 Descending Indianapolis Center
Tue 04:53:31 PM 39.5100 -87.9442 246° West 352 405 28,000 -878 Descending Indianapolis Center
Tue 04:54:33 PM 39.4731 -88.0572 247° West 347 399 28,000  Level Indianapolis Center
Tue 04:55:34 PM 39.4350 -88.1697 246° West 342 394 28,000  Level Indianapolis Center
Tue 04:55:49 PM 39.4286 -88.1936 251° West 342 394 28,000 -480 Level Kansas City Center
Tue 04:56:49 PM 39.3875 -88.3506 251° West 381 438 27,400 -960 Descending Kansas City Center
Tue 04:57:54 PM 39.3658 -88.4797 258° West 377 434 26,000 -1,392 Descending Kansas City Center
Tue 04:58:54 PM 39.3231 -88.6058 246° West 386 444 24,500 -1,452 Descending Kansas City Center
Tue 04:59:58 PM 39.2775 -88.7383 246° West 395 455 23,000 -1,734 Descending Kansas City Center
Tue 05:01:02 PM 39.2356 -88.8683 247° West 396 456 20,800 -2,112 Descending Kansas City Center
Tue 05:02:03 PM 39.1867 -89.0186 247° West 384 442 18,600 -1,918 Descending Kansas City Center
Tue 05:03:04 PM 39.1478 -89.1392 247° West 369 425 16,900 -1,878 Descending Kansas City Center
Tue 05:03:58 PM 39.1133 -89.1922 230° Southwest 344 396 15,000 -1,920 Descending FAA TRACON SMA TRACON (SMA)
Tue 05:04:19 PM 39.1006 -89.2267 244° Southwest 346 398 14,500 -1,610 Descending FAA TRACON SMA TRACON (SMA)
Tue 05:04:39 PM 39.0881 -89.2614 245° Southwest 346 398 13,900 -2,000 Descending FAA TRACON SMA TRACON (SMA)
Tue 05:04:58 PM 39.0739 -89.3050 247° West 345 397 13,200 -1,950 Descending FAA TRACON SMA TRACON (SMA)
Tue 05:05:19 PM 39.0619 -89.3392 246° West 342 394 12,600 -1,756 Descending FAA TRACON SMA TRACON (SMA)
Tue 05:05:39 PM 39.0522 -89.3742 250° West 339 390 12,000 -2,000 Descending FAA TRACON SMA TRACON (SMA)
Tue 05:05:58 PM 39.0356 -89.4144 242° Southwest 333 383 11,300 -1,500 Descending FAA TRACON SMA TRACON (SMA)
Tue 05:06:19 PM 39.0239 -89.4469 245° Southwest 325 374 11,000 -585 Descending FAA TRACON SMA TRACON (SMA)
Tue 05:06:39 PM 39.0142 -89.4786 248° West 314 361 10,900 -154 Descending FAA TRACON SMA TRACON (SMA)
Tue 05:06:58 PM 39.0008 -89.5175 246° West 308 354 10,900  Level FAA TRACON SMA TRACON (SMA)
Tue 05:07:19 PM 38.9903 -89.5483 246° West 308 354 10,900  Level FAA TRACON SMA TRACON (SMA)
Tue 05:07:39 PM 38.9711 -89.5717 223° Southwest 307 353 10,900  Level FAA TRACON SMA TRACON (SMA)
Tue 05:07:58 PM 38.9447 -89.5967 216° Southwest 311 358 10,900 -450 Level FAA TRACON SMA TRACON (SMA)
Tue 05:08:19 PM 38.9233 -89.6153 214° Southwest 303 349 10,600 -878 Descending FAA TRACON SMA TRACON (SMA)
Tue 05:08:39 PM 38.9042 -89.6325 215° Southwest 286 329 10,300 -1,231 Descending FAA TRACON SMA TRACON (SMA)
Tue 05:08:58 PM 38.8825 -89.6539 218° Southwest 263 303 9,800 -1,350 Descending FAA TRACON SMA TRACON (SMA)
Tue 05:09:19 PM 38.8639 -89.6697 214° Southwest 258 297 9,400 -1,171 Descending FAA TRACON SMA TRACON (SMA)
Tue 05:09:39 PM 38.8453 -89.6867 215° Southwest 257 296 9,000 -1,538 Descending FAA TRACON SMA TRACON (SMA)
Tue 05:09:58 PM 38.8217 -89.7083 216° Southwest 268 308 8,400 -1,610 Descending FAA TRACON SMA TRACON (SMA)
Tue 05:10:20 PM 38.8039 -89.7250 216° Southwest 264 304 7,900 -1,610 Descending FAA TRACON SMA TRACON (SMA)
Tue 05:10:39 PM 38.7814 -89.7464 217° Southwest 260 299 7,300 -1,385 Descending FAA TRACON SMA TRACON (SMA)
Tue 05:10:59 PM 38.7644 -89.7636 218° Southwest 256 295 7,000 -600 Descending FAA TRACON SMA TRACON (SMA)
Tue 05:11:19 PM 38.7483 -89.7794 217° Southwest 246 283 6,900 -462 Descending FAA TRACON SMA TRACON (SMA)
Tue 05:11:38 PM 38.7319 -89.7958 218° Southwest 241 277 6,700 -1,200 Descending FAA TRACON SMA TRACON (SMA)
Tue 05:11:59 PM 38.7128 -89.8158 219° Southwest 236 272 6,100 -1,463 Descending FAA TRACON SMA TRACON (SMA)
Tue 05:12:19 PM 38.6964 -89.8317 217° Southwest 235 270 5,700 -1,385 Descending FAA TRACON SMA TRACON (SMA)
Tue 05:12:38 PM 38.6808 -89.8472 218° Southwest 235 270 5,200 -1,200 Descending FAA TRACON SMA TRACON (SMA)
Tue 05:12:59 PM 38.6614 -89.8667 218° Southwest 231 266 4,900 -439 Descending FAA TRACON SMA TRACON (SMA)
Tue 05:13:19 PM 38.6469 -89.8811 218° Southwest 226 260 4,900  Level FAA TRACON SMA TRACON (SMA)
Tue 05:13:38 PM 38.6328 -89.8944 216° Southwest 213 245 4,900  Level FAA TRACON SMA TRACON (SMA)
Tue 05:13:59 PM 38.6147 -89.9114 216° Southwest 201 231 4,900  Level FAA TRACON SMA TRACON (SMA)
Tue 05:14:19 PM 38.6019 -89.9247 219° Southwest 198 228 4,900  Level FAA TRACON SMA TRACON (SMA)
Tue 05:14:39 PM 38.5931 -89.9431 238° Southwest 207 238 4,900  Level FAA TRACON SMA TRACON (SMA)
Tue 05:14:59 PM 38.5944 -89.9717 274° West 212 244 4,900  Level FAA TRACON SMA TRACON (SMA)
Tue 05:15:18 PM 38.5964 -89.9947 276° West 211 243 4,900  Level FAA TRACON SMA TRACON (SMA)
Tue 05:15:39 PM 38.6017 -90.0167 287° West 212 244 4,900 -732 Level FAA TRACON SMA TRACON (SMA)
Tue 05:15:59 PM 38.6131 -90.0428 299° West 219 252 4,400 -1,500 Descending FAA TRACON SMA TRACON (SMA)
Tue 05:16:19 PM 38.6242 -90.0628 305° West 222 255 3,900 -1,385 Descending FAA TRACON SMA TRACON (SMA)
Tue 05:16:38 PM 38.6342 -90.0833 302° West 223 257 3,500 -750 Descending FAA TRACON SMA TRACON (SMA)
Tue 05:16:59 PM 38.6469 -90.1092 302° West 221 254 3,400 -146 Descending FAA TRACON SMA TRACON (SMA)
Tue 05:17:19 PM 38.6572 -90.1292 303° West 221 254 3,400 -615 Level FAA TRACON SMA TRACON (SMA)
Tue 05:17:38 PM 38.6675 -90.1500 302° West 222 255 3,000 -1,263 Descending FAA TRACON SMA TRACON (SMA)

Login

Don't have an account? Register now (free) for customized features, flight alerts, and more!